sensor_id;sensor_type;location;lat;lon;timestamp;P1;durP1;ratioP1;P2;durP2;ratioP2
9115;SDS011;4593;53.652;10.168;2023-02-15T00:01:35;36.83;;;17.77;;
9115;SDS011;4593;53.652;10.168;2023-02-15T00:04:02;26.70;;;15.57;;
9115;SDS011;4593;53.652;10.168;2023-02-15T00:06:28;26.13;;;13.43;;
9115;SDS011;4593;53.652;10.168;2023-02-15T00:08:54;32.87;;;15.83;;
9115;SDS011;4593;53.652;10.168;2023-02-15T00:11:21;31.07;;;16.43;;
9115;SDS011;4593;53.652;10.168;2023-02-15T00:14:06;32.43;;;13.80;;
9115;SDS011;4593;53.652;10.168;2023-02-15T00:16:33;24.67;;;13.67;;
9115;SDS011;4593;53.652;10.168;2023-02-15T00:18:59;35.37;;;15.83;;
9115;SDS011;4593;53.652;10.168;2023-02-15T00:21:27;34.30;;;14.43;;
9115;SDS011;4593;53.652;10.168;2023-02-15T00:23:53;26.60;;;14.17;;
9115;SDS011;4593;53.652;10.168;2023-02-15T00:26:19;42.87;;;20.00;;
9115;SDS011;4593;53.652;10.168;2023-02-15T00:28:45;36.03;;;16.60;;
9115;SDS011;4593;53.652;10.168;2023-02-15T00:31:11;38.00;;;17.80;;
9115;SDS011;4593;53.652;10.168;2023-02-15T00:33:38;35.47;;;16.23;;
9115;SDS011;4593;53.652;10.168;2023-02-15T00:36:05;40.80;;;15.93;;
9115;SDS011;4593;53.652;10.168;2023-02-15T00:38:31;35.70;;;15.40;;
9115;SDS011;4593;53.652;10.168;2023-02-15T00:40:59;29.70;;;14.13;;
9115;SDS011;4593;53.652;10.168;2023-02-15T00:43:26;32.80;;;14.43;;
9115;SDS011;4593;53.652;10.168;2023-02-15T00:45:52;33.23;;;16.33;;
9115;SDS011;4593;53.652;10.168;2023-02-15T00:48:19;33.50;;;15.17;;
9115;SDS011;4593;53.652;10.168;2023-02-15T00:50:45;38.73;;;16.43;;
9115;SDS011;4593;53.652;10.168;2023-02-15T00:53:11;29.20;;;14.10;;
9115;SDS011;4593;53.652;10.168;2023-02-15T00:55:37;35.07;;;17.00;;
9115;SDS011;4593;53.652;10.168;2023-02-15T00:58:05;27.57;;;13.63;;
9115;SDS011;4593;53.652;10.168;2023-02-15T01:00:31;34.30;;;15.63;;
9115;SDS011;4593;53.652;10.168;2023-02-15T01:02:57;30.80;;;14.87;;
9115;SDS011;4593;53.652;10.168;2023-02-15T01:05:23;33.27;;;16.40;;
9115;SDS011;4593;53.652;10.168;2023-02-15T01:07:50;30.93;;;14.27;;
9115;SDS011;4593;53.652;10.168;2023-02-15T01:10:16;35.07;;;15.87;;
9115;SDS011;4593;53.652;10.168;2023-02-15T01:12:42;28.17;;;14.67;;
9115;SDS011;4593;53.652;10.168;2023-02-15T01:15:08;30.90;;;13.80;;
9115;SDS011;4593;53.652;10.168;2023-02-15T01:17:34;31.40;;;13.87;;
9115;SDS011;4593;53.652;10.168;2023-02-15T01:20:00;26.63;;;13.30;;
9115;SDS011;4593;53.652;10.168;2023-02-15T01:22:26;28.87;;;13.90;;
9115;SDS011;4593;53.652;10.168;2023-02-15T01:24:52;26.23;;;14.60;;
9115;SDS011;4593;53.652;10.168;2023-02-15T01:27:18;29.50;;;15.33;;
9115;SDS011;4593;53.652;10.168;2023-02-15T01:29:44;27.13;;;14.20;;
9115;SDS011;4593;53.652;10.168;2023-02-15T01:32:12;32.40;;;15.83;;
9115;SDS011;4593;53.652;10.168;2023-02-15T01:34:38;23.47;;;13.80;;
9115;SDS011;4593;53.652;10.168;2023-02-15T01:37:04;34.93;;;16.33;;
9115;SDS011;4593;53.652;10.168;2023-02-15T01:39:30;23.33;;;12.50;;
9115;SDS011;4593;53.652;10.168;2023-02-15T01:41:56;24.13;;;13.90;;
9115;SDS011;4593;53.652;10.168;2023-02-15T01:47:07;27.10;;;13.47;;
9115;SDS011;4593;53.652;10.168;2023-02-15T01:49:34;24.47;;;13.17;;
9115;SDS011;4593;53.652;10.168;2023-02-15T01:52:00;29.40;;;13.13;;
9115;SDS011;4593;53.652;10.168;2023-02-15T01:54:29;33.07;;;16.40;;
9115;SDS011;4593;53.652;10.168;2023-02-15T01:56:58;34.40;;;16.13;;
9115;SDS011;4593;53.652;10.168;2023-02-15T01:59:26;40.13;;;17.70;;
9115;SDS011;4593;53.652;10.168;2023-02-15T02:01:52;27.77;;;15.30;;
9115;SDS011;4593;53.652;10.168;2023-02-15T02:04:23;35.30;;;13.87;;
9115;SDS011;4593;53.652;10.168;2023-02-15T02:06:50;29.00;;;16.23;;
9115;SDS011;4593;53.652;10.168;2023-02-15T02:09:16;28.67;;;14.13;;
9115;SDS011;4593;53.652;10.168;2023-02-15T02:11:42;27.57;;;13.83;;
9115;SDS011;4593;53.652;10.168;2023-02-15T02:14:10;28.63;;;13.53;;
9115;SDS011;4593;53.652;10.168;2023-02-15T02:16:46;29.00;;;13.87;;
9115;SDS011;4593;53.652;10.168;2023-02-15T02:30:02;27.57;;;13.83;;
9115;SDS011;4593;53.652;10.168;2023-02-15T02:37:45;29.47;;;13.93;;
9115;SDS011;4593;53.652;10.168;2023-02-15T02:40:13;23.27;;;11.33;;
9115;SDS011;4593;53.652;10.168;2023-02-15T02:42:49;26.57;;;12.73;;
9115;SDS011;4593;53.652;10.168;2023-02-15T02:48:08;23.37;;;12.93;;
9115;SDS011;4593;53.652;10.168;2023-02-15T02:50:38;25.87;;;12.40;;
9115;SDS011;4593;53.652;10.168;2023-02-15T02:53:04;22.77;;;13.10;;
9115;SDS011;4593;53.652;10.168;2023-02-15T02:58:26;28.87;;;14.20;;
9115;SDS011;4593;53.652;10.168;2023-02-15T03:00:56;28.33;;;13.23;;
9115;SDS011;4593;53.652;10.168;2023-02-15T03:03:43;25.83;;;13.97;;
9115;SDS011;4593;53.652;10.168;2023-02-15T03:09:42;23.87;;;12.80;;
9115;SDS011;4593;53.652;10.168;2023-02-15T03:11:48;28.50;;;12.27;;
9115;SDS011;4593;53.652;10.168;2023-02-15T03:14:15;25.23;;;12.83;;
9115;SDS011;4593;53.652;10.168;2023-02-15T03:16:42;31.13;;;15.30;;
9115;SDS011;4593;53.652;10.168;2023-02-15T03:19:09;25.03;;;12.77;;
9115;SDS011;4593;53.652;10.168;2023-02-15T03:24:07;24.30;;;12.20;;
9115;SDS011;4593;53.652;10.168;2023-02-15T03:26:34;20.17;;;11.90;;
9115;SDS011;4593;53.652;10.168;2023-02-15T03:29:00;21.30;;;11.97;;
9115;SDS011;4593;53.652;10.168;2023-02-15T03:31:28;26.83;;;12.53;;
9115;SDS011;4593;53.652;10.168;2023-02-15T03:33:57;26.00;;;12.83;;
9115;SDS011;4593;53.652;10.168;2023-02-15T03:36:29;21.07;;;11.70;;
9115;SDS011;4593;53.652;10.168;2023-02-15T03:39:07;18.30;;;10.27;;
9115;SDS011;4593;53.652;10.168;2023-02-15T03:41:44;22.93;;;12.33;;
9115;SDS011;4593;53.652;10.168;2023-02-15T03:44:13;23.70;;;12.57;;
9115;SDS011;4593;53.652;10.168;2023-02-15T03:46:49;26.97;;;13.70;;
9115;SDS011;4593;53.652;10.168;2023-02-15T03:49:21;24.43;;;12.37;;
9115;SDS011;4593;53.652;10.168;2023-02-15T03:51:48;23.97;;;12.00;;
9115;SDS011;4593;53.652;10.168;2023-02-15T03:54:22;20.30;;;11.40;;
9115;SDS011;4593;53.652;10.168;2023-02-15T03:57:12;25.17;;;12.47;;
9115;SDS011;4593;53.652;10.168;2023-02-15T03:59:57;20.90;;;11.57;;
9115;SDS011;4593;53.652;10.168;2023-02-15T04:02:46;18.47;;;10.87;;
9115;SDS011;4593;53.652;10.168;2023-02-15T04:05:14;20.70;;;10.80;;
9115;SDS011;4593;53.652;10.168;2023-02-15T04:07:40;22.30;;;11.70;;
9115;SDS011;4593;53.652;10.168;2023-02-15T04:10:06;21.87;;;11.80;;
9115;SDS011;4593;53.652;10.168;2023-02-15T04:12:50;23.67;;;11.57;;
9115;SDS011;4593;53.652;10.168;2023-02-15T04:15:16;23.70;;;10.87;;
9115;SDS011;4593;53.652;10.168;2023-02-15T04:18:02;25.33;;;13.27;;
9115;SDS011;4593;53.652;10.168;2023-02-15T04:20:28;28.20;;;12.83;;
9115;SDS011;4593;53.652;10.168;2023-02-15T04:23:13;23.57;;;13.03;;
9115;SDS011;4593;53.652;10.168;2023-02-15T04:25:57;24.13;;;14.50;;
9115;SDS011;4593;53.652;10.168;2023-02-15T04:28:24;22.70;;;13.23;;
9115;SDS011;4593;53.652;10.168;2023-02-15T04:30:49;24.00;;;11.97;;
9115;SDS011;4593;53.652;10.168;2023-02-15T04:33:15;22.80;;;11.77;;
9115;SDS011;4593;53.652;10.168;2023-02-15T04:35:43;23.33;;;12.57;;
9115;SDS011;4593;53.652;10.168;2023-02-15T04:38:10;23.93;;;12.97;;
9115;SDS011;4593;53.652;10.168;2023-02-15T04:40:36;29.20;;;13.40;;
9115;SDS011;4593;53.652;10.168;2023-02-15T04:43:02;24.83;;;10.57;;
9115;SDS011;4593;53.652;10.168;2023-02-15T04:45:28;27.07;;;12.33;;
9115;SDS011;4593;53.652;10.168;2023-02-15T04:47:54;30.87;;;13.50;;
9115;SDS011;4593;53.652;10.168;2023-02-15T04:50:20;23.23;;;12.07;;
9115;SDS011;4593;53.652;10.168;2023-02-15T04:52:46;22.10;;;11.13;;
9115;SDS011;4593;53.652;10.168;2023-02-15T04:55:12;33.03;;;14.10;;
9115;SDS011;4593;53.652;10.168;2023-02-15T04:57:39;22.37;;;11.63;;
9115;SDS011;4593;53.652;10.168;2023-02-15T05:00:05;24.47;;;13.07;;
9115;SDS011;4593;53.652;10.168;2023-02-15T05:02:32;23.97;;;10.67;;
9115;SDS011;4593;53.652;10.168;2023-02-15T05:04:58;20.60;;;11.93;;
9115;SDS011;4593;53.652;10.168;2023-02-15T05:07:24;25.00;;;12.07;;
9115;SDS011;4593;53.652;10.168;2023-02-15T05:09:50;28.43;;;11.60;;
9115;SDS011;4593;53.652;10.168;2023-02-15T05:12:16;16.93;;;10.87;;
9115;SDS011;4593;53.652;10.168;2023-02-15T05:14:42;19.73;;;10.90;;
9115;SDS011;4593;53.652;10.168;2023-02-15T05:17:08;18.47;;;9.90;;
9115;SDS011;4593;53.652;10.168;2023-02-15T05:19:34;21.43;;;11.43;;
9115;SDS011;4593;53.652;10.168;2023-02-15T05:22:00;25.13;;;11.53;;
9115;SDS011;4593;53.652;10.168;2023-02-15T05:24:26;21.53;;;10.93;;
9115;SDS011;4593;53.652;10.168;2023-02-15T05:27:11;24.40;;;12.37;;
9115;SDS011;4593;53.652;10.168;2023-02-15T05:29:56;20.60;;;12.00;;
9115;SDS011;4593;53.652;10.168;2023-02-15T05:32:22;19.13;;;10.93;;
9115;SDS011;4593;53.652;10.168;2023-02-15T05:34:48;22.80;;;11.00;;
9115;SDS011;4593;53.652;10.168;2023-02-15T05:37:14;16.87;;;10.73;;
9115;SDS011;4593;53.652;10.168;2023-02-15T05:39:40;22.57;;;11.40;;
9115;SDS011;4593;53.652;10.168;2023-02-15T05:42:06;16.33;;;9.00;;
9115;SDS011;4593;53.652;10.168;2023-02-15T05:44:32;20.00;;;10.53;;
9115;SDS011;4593;53.652;10.168;2023-02-15T05:46:58;16.67;;;9.03;;
9115;SDS011;4593;53.652;10.168;2023-02-15T05:49:24;20.90;;;10.53;;
9115;SDS011;4593;53.652;10.168;2023-02-15T05:51:50;19.20;;;11.03;;
9115;SDS011;4593;53.652;10.168;2023-02-15T05:54:16;20.57;;;11.00;;
9115;SDS011;4593;53.652;10.168;2023-02-15T05:56:42;19.63;;;11.00;;
9115;SDS011;4593;53.652;10.168;2023-02-15T05:59:08;17.07;;;10.10;;
9115;SDS011;4593;53.652;10.168;2023-02-15T06:01:34;15.33;;;8.80;;
9115;SDS011;4593;53.652;10.168;2023-02-15T06:04:01;19.50;;;9.80;;
9115;SDS011;4593;53.652;10.168;2023-02-15T06:06:27;22.27;;;10.10;;
9115;SDS011;4593;53.652;10.168;2023-02-15T06:08:53;18.30;;;10.30;;
9115;SDS011;4593;53.652;10.168;2023-02-15T06:11:19;15.67;;;9.67;;
9115;SDS011;4593;53.652;10.168;2023-02-15T06:13:45;21.17;;;9.97;;
9115;SDS011;4593;53.652;10.168;2023-02-15T06:16:11;16.17;;;9.03;;
9115;SDS011;4593;53.652;10.168;2023-02-15T06:18:37;21.17;;;10.57;;
9115;SDS011;4593;53.652;10.168;2023-02-15T06:21:03;17.23;;;9.90;;
9115;SDS011;4593;53.652;10.168;2023-02-15T06:23:29;17.67;;;9.67;;
9115;SDS011;4593;53.652;10.168;2023-02-15T06:25:55;16.10;;;9.63;;
9115;SDS011;4593;53.652;10.168;2023-02-15T06:28:21;13.03;;;7.93;;
9115;SDS011;4593;53.652;10.168;2023-02-15T06:30:47;14.27;;;8.80;;
9115;SDS011;4593;53.652;10.168;2023-02-15T06:33:13;14.47;;;8.37;;
9115;SDS011;4593;53.652;10.168;2023-02-15T06:35:39;17.83;;;9.27;;
9115;SDS011;4593;53.652;10.168;2023-02-15T06:38:05;16.00;;;8.50;;
9115;SDS011;4593;53.652;10.168;2023-02-15T06:40:32;23.40;;;11.47;;
9115;SDS011;4593;53.652;10.168;2023-02-15T06:42:58;16.77;;;9.73;;
9115;SDS011;4593;53.652;10.168;2023-02-15T06:45:24;20.10;;;10.27;;
9115;SDS011;4593;53.652;10.168;2023-02-15T06:47:50;14.83;;;8.80;;
9115;SDS011;4593;53.652;10.168;2023-02-15T06:50:16;15.13;;;8.83;;
9115;SDS011;4593;53.652;10.168;2023-02-15T06:52:42;14.80;;;8.83;;
9115;SDS011;4593;53.652;10.168;2023-02-15T06:55:08;14.03;;;8.63;;
9115;SDS011;4593;53.652;10.168;2023-02-15T06:57:34;18.67;;;9.83;;
9115;SDS011;4593;53.652;10.168;2023-02-15T07:00:00;16.50;;;8.87;;
9115;SDS011;4593;53.652;10.168;2023-02-15T07:02:26;14.20;;;9.50;;
9115;SDS011;4593;53.652;10.168;2023-02-15T07:04:52;19.67;;;8.00;;
9115;SDS011;4593;53.652;10.168;2023-02-15T07:07:18;16.47;;;8.77;;
9115;SDS011;4593;53.652;10.168;2023-02-15T07:09:44;17.87;;;9.60;;
9115;SDS011;4593;53.652;10.168;2023-02-15T07:12:10;19.90;;;9.17;;
9115;SDS011;4593;53.652;10.168;2023-02-15T07:14:54;17.03;;;9.83;;
9115;SDS011;4593;53.652;10.168;2023-02-15T07:17:23;12.27;;;9.33;;
9115;SDS011;4593;53.652;10.168;2023-02-15T07:19:49;17.67;;;10.43;;
9115;SDS011;4593;53.652;10.168;2023-02-15T07:22:15;14.63;;;9.20;;
9115;SDS011;4593;53.652;10.168;2023-02-15T07:24:41;19.00;;;10.17;;
9115;SDS011;4593;53.652;10.168;2023-02-15T07:27:07;13.93;;;8.80;;
9115;SDS011;4593;53.652;10.168;2023-02-15T07:29:33;24.03;;;10.03;;
9115;SDS011;4593;53.652;10.168;2023-02-15T07:31:59;23.73;;;9.57;;
9115;SDS011;4593;53.652;10.168;2023-02-15T07:34:25;14.80;;;9.23;;
9115;SDS011;4593;53.652;10.168;2023-02-15T07:36:51;13.27;;;7.23;;
9115;SDS011;4593;53.652;10.168;2023-02-15T07:39:18;17.80;;;8.97;;
9115;SDS011;4593;53.652;10.168;2023-02-15T07:41:46;14.10;;;9.10;;
9115;SDS011;4593;53.652;10.168;2023-02-15T07:44:12;21.00;;;10.17;;
9115;SDS011;4593;53.652;10.168;2023-02-15T07:46:39;11.93;;;8.00;;
9115;SDS011;4593;53.652;10.168;2023-02-15T07:49:05;16.53;;;9.00;;
9115;SDS011;4593;53.652;10.168;2023-02-15T07:51:31;17.83;;;10.23;;
9115;SDS011;4593;53.652;10.168;2023-02-15T07:53:57;16.70;;;8.17;;
9115;SDS011;4593;53.652;10.168;2023-02-15T07:56:23;17.87;;;10.23;;
9115;SDS011;4593;53.652;10.168;2023-02-15T07:58:49;13.77;;;8.93;;
9115;SDS011;4593;53.652;10.168;2023-02-15T08:01:15;16.63;;;9.33;;
9115;SDS011;4593;53.652;10.168;2023-02-15T08:03:42;19.90;;;10.00;;
9115;SDS011;4593;53.652;10.168;2023-02-15T08:06:08;16.20;;;8.90;;
9115;SDS011;4593;53.652;10.168;2023-02-15T08:08:36;16.00;;;9.87;;
9115;SDS011;4593;53.652;10.168;2023-02-15T08:13:57;16.73;;;9.83;;
9115;SDS011;4593;53.652;10.168;2023-02-15T08:16:40;13.10;;;8.93;;
9115;SDS011;4593;53.652;10.168;2023-02-15T08:19:08;16.90;;;10.93;;
9115;SDS011;4593;53.652;10.168;2023-02-15T08:21:35;17.13;;;10.43;;
9115;SDS011;4593;53.652;10.168;2023-02-15T08:24:01;14.30;;;9.20;;
9115;SDS011;4593;53.652;10.168;2023-02-15T08:26:28;18.07;;;10.13;;
9115;SDS011;4593;53.652;10.168;2023-02-15T08:28:54;14.03;;;8.97;;
9115;SDS011;4593;53.652;10.168;2023-02-15T08:31:21;14.33;;;9.07;;
9115;SDS011;4593;53.652;10.168;2023-02-15T08:33:49;12.90;;;8.00;;
9115;SDS011;4593;53.652;10.168;2023-02-15T08:36:16;13.20;;;8.37;;
9115;SDS011;4593;53.652;10.168;2023-02-15T08:38:43;14.53;;;9.33;;
9115;SDS011;4593;53.652;10.168;2023-02-15T08:43:35;14.40;;;9.47;;
9115;SDS011;4593;53.652;10.168;2023-02-15T08:46:01;16.67;;;9.07;;
9115;SDS011;4593;53.652;10.168;2023-02-15T08:48:27;13.83;;;8.77;;
9115;SDS011;4593;53.652;10.168;2023-02-15T08:50:53;16.40;;;9.07;;
9115;SDS011;4593;53.652;10.168;2023-02-15T08:53:19;15.73;;;9.70;;
9115;SDS011;4593;53.652;10.168;2023-02-15T08:55:46;19.77;;;10.87;;
9115;SDS011;4593;53.652;10.168;2023-02-15T08:58:12;15.67;;;9.40;;
9115;SDS011;4593;53.652;10.168;2023-02-15T09:00:38;17.60;;;9.50;;
9115;SDS011;4593;53.652;10.168;2023-02-15T09:03:04;16.77;;;9.00;;
9115;SDS011;4593;53.652;10.168;2023-02-15T09:05:30;16.23;;;10.13;;
9115;SDS011;4593;53.652;10.168;2023-02-15T09:07:56;17.87;;;8.83;;
9115;SDS011;4593;53.652;10.168;2023-02-15T09:10:22;12.57;;;8.50;;
9115;SDS011;4593;53.652;10.168;2023-02-15T09:12:48;14.60;;;9.87;;
9115;SDS011;4593;53.652;10.168;2023-02-15T09:15:16;15.93;;;9.63;;
9115;SDS011;4593;53.652;10.168;2023-02-15T09:17:42;18.00;;;9.77;;
9115;SDS011;4593;53.652;10.168;2023-02-15T09:20:08;16.53;;;10.33;;
9115;SDS011;4593;53.652;10.168;2023-02-15T09:22:34;18.73;;;9.77;;
9115;SDS011;4593;53.652;10.168;2023-02-15T09:25:00;17.77;;;9.13;;
9115;SDS011;4593;53.652;10.168;2023-02-15T09:27:26;18.20;;;9.93;;
9115;SDS011;4593;53.652;10.168;2023-02-15T09:29:52;14.87;;;8.90;;
9115;SDS011;4593;53.652;10.168;2023-02-15T09:32:18;17.73;;;10.13;;
9115;SDS011;4593;53.652;10.168;2023-02-15T09:34:44;18.23;;;9.53;;
9115;SDS011;4593;53.652;10.168;2023-02-15T09:37:10;16.17;;;9.10;;
9115;SDS011;4593;53.652;10.168;2023-02-15T09:39:37;14.03;;;9.63;;
9115;SDS011;4593;53.652;10.168;2023-02-15T09:47:47;16.67;;;9.53;;
9115;SDS011;4593;53.652;10.168;2023-02-15T10:00:59;17.73;;;10.17;;
9115;SDS011;4593;53.652;10.168;2023-02-15T10:19:31;19.80;;;11.27;;
9115;SDS011;4593;53.652;10.168;2023-02-15T10:27:08;17.57;;;10.83;;
9115;SDS011;4593;53.652;10.168;2023-02-15T10:29:37;17.03;;;10.00;;
9115;SDS011;4593;53.652;10.168;2023-02-15T10:32:22;16.63;;;9.97;;
9115;SDS011;4593;53.652;10.168;2023-02-15T10:35:00;17.93;;;9.97;;
9115;SDS011;4593;53.652;10.168;2023-02-15T10:37:32;19.07;;;9.97;;
9115;SDS011;4593;53.652;10.168;2023-02-15T10:40:04;16.73;;;10.10;;
9115;SDS011;4593;53.652;10.168;2023-02-15T10:45:36;19.63;;;11.40;;
9115;SDS011;4593;53.652;10.168;2023-02-15T10:51:02;23.03;;;11.50;;
9115;SDS011;4593;53.652;10.168;2023-02-15T10:53:37;20.03;;;11.27;;
9115;SDS011;4593;53.652;10.168;2023-02-15T10:58:51;19.33;;;11.47;;
9115;SDS011;4593;53.652;10.168;2023-02-15T11:06:41;22.03;;;12.67;;
9115;SDS011;4593;53.652;10.168;2023-02-15T11:09:10;25.23;;;13.67;;
9115;SDS011;4593;53.652;10.168;2023-02-15T11:11:41;21.97;;;12.07;;
9115;SDS011;4593;53.652;10.168;2023-02-15T11:14:16;27.80;;;13.63;;
9115;SDS011;4593;53.652;10.168;2023-02-15T11:16:44;19.70;;;11.13;;
9115;SDS011;4593;53.652;10.168;2023-02-15T11:19:12;19.37;;;11.20;;
9115;SDS011;4593;53.652;10.168;2023-02-15T11:21:49;17.67;;;10.97;;
9115;SDS011;4593;53.652;10.168;2023-02-15T11:24:17;22.30;;;11.27;;
9115;SDS011;4593;53.652;10.168;2023-02-15T11:26:53;20.93;;;12.73;;
9115;SDS011;4593;53.652;10.168;2023-02-15T11:31:54;25.03;;;12.40;;
9115;SDS011;4593;53.652;10.168;2023-02-15T11:34:29;24.97;;;13.17;;
9115;SDS011;4593;53.652;10.168;2023-02-15T11:36:55;24.63;;;13.77;;
9115;SDS011;4593;53.652;10.168;2023-02-15T11:39:23;24.73;;;12.87;;
9115;SDS011;4593;53.652;10.168;2023-02-15T11:41:54;28.43;;;14.13;;
9115;SDS011;4593;53.652;10.168;2023-02-15T11:44:22;30.43;;;15.40;;
9115;SDS011;4593;53.652;10.168;2023-02-15T11:46:49;28.20;;;13.40;;
9115;SDS011;4593;53.652;10.168;2023-02-15T11:49:31;26.67;;;13.47;;
9115;SDS011;4593;53.652;10.168;2023-02-15T11:51:58;33.17;;;14.43;;
9115;SDS011;4593;53.652;10.168;2023-02-15T11:54:29;28.57;;;14.00;;
9115;SDS011;4593;53.652;10.168;2023-02-15T11:56:58;29.40;;;14.60;;
9115;SDS011;4593;53.652;10.168;2023-02-15T11:59:29;30.77;;;14.43;;
9115;SDS011;4593;53.652;10.168;2023-02-15T12:01:57;28.83;;;14.43;;
9115;SDS011;4593;53.652;10.168;2023-02-15T12:04:24;31.13;;;15.47;;
9115;SDS011;4593;53.652;10.168;2023-02-15T12:06:53;34.27;;;14.80;;
9115;SDS011;4593;53.652;10.168;2023-02-15T12:14:50;28.27;;;14.40;;
9115;SDS011;4593;53.652;10.168;2023-02-15T12:17:17;34.60;;;18.07;;
9115;SDS011;4593;53.652;10.168;2023-02-15T12:19:43;35.33;;;16.20;;
9115;SDS011;4593;53.652;10.168;2023-02-15T12:22:27;35.30;;;15.63;;
9115;SDS011;4593;53.652;10.168;2023-02-15T12:24:54;35.57;;;15.40;;
9115;SDS011;4593;53.652;10.168;2023-02-15T12:27:22;36.73;;;18.13;;
9115;SDS011;4593;53.652;10.168;2023-02-15T12:29:53;35.50;;;16.20;;
9115;SDS011;4593;53.652;10.168;2023-02-15T12:32:26;32.27;;;16.60;;
9115;SDS011;4593;53.652;10.168;2023-02-15T12:35:26;33.83;;;16.77;;
9115;SDS011;4593;53.652;10.168;2023-02-15T12:37:39;34.53;;;17.00;;
9115;SDS011;4593;53.652;10.168;2023-02-15T12:40:21;38.57;;;17.93;;
9115;SDS011;4593;53.652;10.168;2023-02-15T12:42:47;34.13;;;16.77;;
9115;SDS011;4593;53.652;10.168;2023-02-15T12:45:22;32.23;;;18.17;;
9115;SDS011;4593;53.652;10.168;2023-02-15T12:50:34;33.80;;;17.73;;
9115;SDS011;4593;53.652;10.168;2023-02-15T12:53:10;34.40;;;16.93;;
9115;SDS011;4593;53.652;10.168;2023-02-15T12:55:38;26.60;;;14.20;;
9115;SDS011;4593;53.652;10.168;2023-02-15T12:58:05;29.30;;;15.77;;
9115;SDS011;4593;53.652;10.168;2023-02-15T13:00:31;33.37;;;16.53;;
9115;SDS011;4593;53.652;10.168;2023-02-15T13:02:58;38.23;;;16.87;;
9115;SDS011;4593;53.652;10.168;2023-02-15T13:05:35;35.47;;;17.27;;
9115;SDS011;4593;53.652;10.168;2023-02-15T13:10:33;36.67;;;18.13;;
9115;SDS011;4593;53.652;10.168;2023-02-15T13:13:01;33.83;;;16.97;;
9115;SDS011;4593;53.652;10.168;2023-02-15T13:15:34;37.57;;;16.77;;
9115;SDS011;4593;53.652;10.168;2023-02-15T13:18:01;29.03;;;14.47;;
9115;SDS011;4593;53.652;10.168;2023-02-15T13:20:28;36.23;;;17.70;;
9115;SDS011;4593;53.652;10.168;2023-02-15T13:23:37;30.23;;;15.00;;
9115;SDS011;4593;53.652;10.168;2023-02-15T13:25:45;29.37;;;14.60;;
9115;SDS011;4593;53.652;10.168;2023-02-15T13:28:15;31.20;;;15.60;;
9115;SDS011;4593;53.652;10.168;2023-02-15T13:30:43;29.83;;;16.80;;
9115;SDS011;4593;53.652;10.168;2023-02-15T13:33:31;37.23;;;15.83;;
9115;SDS011;4593;53.652;10.168;2023-02-15T13:38:28;41.67;;;17.07;;
9115;SDS011;4593;53.652;10.168;2023-02-15T13:41:04;35.63;;;17.20;;
9115;SDS011;4593;53.652;10.168;2023-02-15T13:43:33;31.93;;;16.87;;
9115;SDS011;4593;53.652;10.168;2023-02-15T13:46:11;29.80;;;15.80;;
9115;SDS011;4593;53.652;10.168;2023-02-15T13:48:52;30.37;;;16.23;;
9115;SDS011;4593;53.652;10.168;2023-02-15T13:51:27;40.37;;;16.37;;
9115;SDS011;4593;53.652;10.168;2023-02-15T13:59:24;29.90;;;16.83;;
9115;SDS011;4593;53.652;10.168;2023-02-15T14:24:51;33.27;;;17.57;;
9115;SDS011;4593;53.652;10.168;2023-02-15T14:27:23;36.27;;;18.63;;
9115;SDS011;4593;53.652;10.168;2023-02-15T14:29:52;30.53;;;17.70;;
9115;SDS011;4593;53.652;10.168;2023-02-15T14:32:39;30.07;;;16.50;;
9115;SDS011;4593;53.652;10.168;2023-02-15T14:35:13;30.83;;;16.17;;
9115;SDS011;4593;53.652;10.168;2023-02-15T14:37:48;34.53;;;17.80;;
9115;SDS011;4593;53.652;10.168;2023-02-15T14:40:26;33.17;;;17.60;;
9115;SDS011;4593;53.652;10.168;2023-02-15T14:51:04;35.20;;;16.87;;
9115;SDS011;4593;53.652;10.168;2023-02-15T14:58:32;30.53;;;17.57;;
9115;SDS011;4593;53.652;10.168;2023-02-15T15:01:08;36.27;;;16.63;;
9115;SDS011;4593;53.652;10.168;2023-02-15T15:03:35;28.23;;;14.67;;
9115;SDS011;4593;53.652;10.168;2023-02-15T15:06:02;30.90;;;16.40;;
9115;SDS011;4593;53.652;10.168;2023-02-15T15:10:55;34.77;;;14.93;;
9115;SDS011;4593;53.652;10.168;2023-02-15T15:15:57;30.67;;;16.50;;
9115;SDS011;4593;53.652;10.168;2023-02-15T15:18:46;28.30;;;14.80;;
9115;SDS011;4593;53.652;10.168;2023-02-15T15:22:02;26.70;;;14.10;;
9115;SDS011;4593;53.652;10.168;2023-02-15T15:23:59;31.63;;;14.50;;
9115;SDS011;4593;53.652;10.168;2023-02-15T15:26:29;25.40;;;13.43;;
9115;SDS011;4593;53.652;10.168;2023-02-15T15:28:58;25.00;;;12.83;;
9115;SDS011;4593;53.652;10.168;2023-02-15T15:34:12;25.77;;;13.33;;
9115;SDS011;4593;53.652;10.168;2023-02-15T15:39:21;22.20;;;13.20;;
9115;SDS011;4593;53.652;10.168;2023-02-15T15:50:18;22.00;;;12.47;;
9115;SDS011;4593;53.652;10.168;2023-02-15T15:52:55;21.90;;;12.67;;
9115;SDS011;4593;53.652;10.168;2023-02-15T15:55:22;22.30;;;11.70;;
9115;SDS011;4593;53.652;10.168;2023-02-15T15:57:50;19.13;;;11.40;;
9115;SDS011;4593;53.652;10.168;2023-02-15T16:03:02;21.97;;;12.43;;
9115;SDS011;4593;53.652;10.168;2023-02-15T16:05:38;24.87;;;12.50;;
9115;SDS011;4593;53.652;10.168;2023-02-15T16:08:04;22.50;;;11.50;;
9115;SDS011;4593;53.652;10.168;2023-02-15T16:10:30;18.77;;;10.50;;
9115;SDS011;4593;53.652;10.168;2023-02-15T16:12:57;22.00;;;11.67;;
9115;SDS011;4593;53.652;10.168;2023-02-15T16:15:25;18.23;;;10.97;;
9115;SDS011;4593;53.652;10.168;2023-02-15T16:17:55;17.73;;;9.87;;
9115;SDS011;4593;53.652;10.168;2023-02-15T16:22:48;18.77;;;11.23;;
9115;SDS011;4593;53.652;10.168;2023-02-15T16:27:41;20.93;;;11.17;;
9115;SDS011;4593;53.652;10.168;2023-02-15T16:30:18;19.73;;;10.90;;
9115;SDS011;4593;53.652;10.168;2023-02-15T16:32:44;20.80;;;11.30;;
9115;SDS011;4593;53.652;10.168;2023-02-15T16:35:14;22.00;;;12.53;;
9115;SDS011;4593;53.652;10.168;2023-02-15T16:37:41;24.13;;;13.00;;
9115;SDS011;4593;53.652;10.168;2023-02-15T16:40:27;17.07;;;10.33;;
9115;SDS011;4593;53.652;10.168;2023-02-15T16:42:54;21.67;;;11.23;;
9115;SDS011;4593;53.652;10.168;2023-02-15T16:45:22;18.17;;;10.87;;
9115;SDS011;4593;53.652;10.168;2023-02-15T16:47:50;22.03;;;12.33;;
9115;SDS011;4593;53.652;10.168;2023-02-15T16:50:19;17.73;;;10.80;;
9115;SDS011;4593;53.652;10.168;2023-02-15T16:52:46;20.93;;;11.20;;
9115;SDS011;4593;53.652;10.168;2023-02-15T16:55:25;22.27;;;13.73;;
9115;SDS011;4593;53.652;10.168;2023-02-15T16:57:54;29.67;;;13.43;;
9115;SDS011;4593;53.652;10.168;2023-02-15T17:00:21;23.20;;;12.57;;
9115;SDS011;4593;53.652;10.168;2023-02-15T17:05:23;24.53;;;13.40;;
9115;SDS011;4593;53.652;10.168;2023-02-15T17:07:51;24.47;;;13.27;;
9115;SDS011;4593;53.652;10.168;2023-02-15T17:12:54;34.13;;;14.17;;
9115;SDS011;4593;53.652;10.168;2023-02-15T17:15:28;23.97;;;13.10;;
9115;SDS011;4593;53.652;10.168;2023-02-15T17:18:02;25.63;;;14.33;;
9115;SDS011;4593;53.652;10.168;2023-02-15T17:20:29;30.03;;;13.57;;
9115;SDS011;4593;53.652;10.168;2023-02-15T17:22:55;25.67;;;13.87;;
9115;SDS011;4593;53.652;10.168;2023-02-15T17:25:26;29.83;;;16.20;;
9115;SDS011;4593;53.652;10.168;2023-02-15T17:27:55;24.87;;;14.00;;
9115;SDS011;4593;53.652;10.168;2023-02-15T17:30:29;23.37;;;12.67;;
9115;SDS011;4593;53.652;10.168;2023-02-15T17:33:02;28.30;;;14.40;;
9115;SDS011;4593;53.652;10.168;2023-02-15T17:35:30;24.17;;;12.83;;
9115;SDS011;4593;53.652;10.168;2023-02-15T17:38:13;21.47;;;12.00;;
9115;SDS011;4593;53.652;10.168;2023-02-15T17:40:40;20.50;;;12.07;;
9115;SDS011;4593;53.652;10.168;2023-02-15T17:43:06;21.57;;;12.47;;
9115;SDS011;4593;53.652;10.168;2023-02-15T17:45:33;27.00;;;12.80;;